sensor_id;sensor_type;location;lat;lon;timestamp;P1;durP1;ratioP1;P2;durP2;ratioP2
18510;SDS011;9384;48.044;11.616;2022-08-01T00:02:13;2.43;;;2.30;;
18510;SDS011;9384;48.044;11.616;2022-08-01T00:04:40;2.93;;;2.73;;
18510;SDS011;9384;48.044;11.616;2022-08-01T00:07:08;4.30;;;2.20;;
18510;SDS011;9384;48.044;11.616;2022-08-01T00:09:35;2.93;;;2.73;;
18510;SDS011;9384;48.044;11.616;2022-08-01T00:12:02;4.77;;;2.33;;
18510;SDS011;9384;48.044;11.616;2022-08-01T00:14:30;2.53;;;2.50;;
18510;SDS011;9384;48.044;11.616;2022-08-01T00:16:58;2.50;;;2.30;;
18510;SDS011;9384;48.044;11.616;2022-08-01T00:19:26;2.83;;;2.63;;
18510;SDS011;9384;48.044;11.616;2022-08-01T00:21:53;2.60;;;2.50;;
18510;SDS011;9384;48.044;11.616;2022-08-01T00:24:21;2.53;;;2.43;;
18510;SDS011;9384;48.044;11.616;2022-08-01T00:26:48;2.93;;;2.53;;
18510;SDS011;9384;48.044;11.616;2022-08-01T00:29:15;2.50;;;2.40;;
18510;SDS011;9384;48.044;11.616;2022-08-01T00:31:42;3.67;;;2.60;;
18510;SDS011;9384;48.044;11.616;2022-08-01T00:34:10;3.07;;;2.80;;
18510;SDS011;9384;48.044;11.616;2022-08-01T00:36:38;2.90;;;2.70;;
18510;SDS011;9384;48.044;11.616;2022-08-01T00:39:05;3.50;;;2.37;;
18510;SDS011;9384;48.044;11.616;2022-08-01T00:41:32;4.10;;;2.60;;
18510;SDS011;9384;48.044;11.616;2022-08-01T00:44:01;4.03;;;2.63;;
18510;SDS011;9384;48.044;11.616;2022-08-01T00:46:29;2.60;;;2.40;;
18510;SDS011;9384;48.044;11.616;2022-08-01T00:48:56;2.43;;;2.43;;
18510;SDS011;9384;48.044;11.616;2022-08-01T00:51:24;3.17;;;2.50;;
18510;SDS011;9384;48.044;11.616;2022-08-01T00:53:53;3.40;;;2.50;;
18510;SDS011;9384;48.044;11.616;2022-08-01T00:56:20;3.40;;;2.27;;
18510;SDS011;9384;48.044;11.616;2022-08-01T00:58:48;3.30;;;2.90;;
18510;SDS011;9384;48.044;11.616;2022-08-01T01:01:15;2.50;;;2.30;;
18510;SDS011;9384;48.044;11.616;2022-08-01T01:03:42;4.60;;;2.27;;
18510;SDS011;9384;48.044;11.616;2022-08-01T01:06:14;4.40;;;2.43;;
18510;SDS011;9384;48.044;11.616;2022-08-01T01:08:46;2.73;;;2.63;;
18510;SDS011;9384;48.044;11.616;2022-08-01T01:11:19;2.53;;;2.43;;
18510;SDS011;9384;48.044;11.616;2022-08-01T01:13:49;2.37;;;2.27;;
18510;SDS011;9384;48.044;11.616;2022-08-01T01:16:19;2.83;;;2.73;;
18510;SDS011;9384;48.044;11.616;2022-08-01T01:18:47;3.60;;;2.30;;
18510;SDS011;9384;48.044;11.616;2022-08-01T01:24:08;2.50;;;2.30;;
18510;SDS011;9384;48.044;11.616;2022-08-01T01:26:39;4.47;;;2.40;;
18510;SDS011;9384;48.044;11.616;2022-08-01T01:29:11;8.97;;;2.80;;
18510;SDS011;9384;48.044;11.616;2022-08-01T01:31:42;2.83;;;2.43;;
18510;SDS011;9384;48.044;11.616;2022-08-01T01:34:11;2.50;;;2.30;;
18510;SDS011;9384;48.044;11.616;2022-08-01T01:36:39;1.90;;;1.83;;
18510;SDS011;9384;48.044;11.616;2022-08-01T01:39:06;2.63;;;2.20;;
18510;SDS011;9384;48.044;11.616;2022-08-01T01:41:34;2.50;;;2.40;;
18510;SDS011;9384;48.044;11.616;2022-08-01T01:44:03;2.30;;;2.20;;
18510;SDS011;9384;48.044;11.616;2022-08-01T01:46:32;2.53;;;2.40;;
18510;SDS011;9384;48.044;11.616;2022-08-01T01:48:59;3.40;;;2.10;;
18510;SDS011;9384;48.044;11.616;2022-08-01T01:51:28;3.47;;;2.30;;
18510;SDS011;9384;48.044;11.616;2022-08-01T01:53:56;3.37;;;2.10;;
18510;SDS011;9384;48.044;11.616;2022-08-01T01:56:23;2.60;;;2.50;;
18510;SDS011;9384;48.044;11.616;2022-08-01T01:58:52;2.30;;;2.20;;
18510;SDS011;9384;48.044;11.616;2022-08-01T02:01:20;2.47;;;2.27;;
18510;SDS011;9384;48.044;11.616;2022-08-01T02:03:49;2.43;;;2.33;;
18510;SDS011;9384;48.044;11.616;2022-08-01T02:06:18;2.03;;;1.87;;
18510;SDS011;9384;48.044;11.616;2022-08-01T02:08:46;1.90;;;1.80;;
18510;SDS011;9384;48.044;11.616;2022-08-01T02:11:14;5.37;;;2.23;;
18510;SDS011;9384;48.044;11.616;2022-08-01T02:13:46;2.20;;;2.10;;
18510;SDS011;9384;48.044;11.616;2022-08-01T02:16:15;2.50;;;2.40;;
18510;SDS011;9384;48.044;11.616;2022-08-01T02:18:43;3.27;;;2.17;;
18510;SDS011;9384;48.044;11.616;2022-08-01T02:21:13;2.10;;;2.10;;
18510;SDS011;9384;48.044;11.616;2022-08-01T02:23:40;2.20;;;2.10;;
18510;SDS011;9384;48.044;11.616;2022-08-01T02:26:09;2.10;;;2.00;;
18510;SDS011;9384;48.044;11.616;2022-08-01T02:28:38;2.60;;;2.40;;
18510;SDS011;9384;48.044;11.616;2022-08-01T02:31:09;2.00;;;1.97;;
18510;SDS011;9384;48.044;11.616;2022-08-01T02:33:38;2.33;;;2.23;;
18510;SDS011;9384;48.044;11.616;2022-08-01T02:36:06;2.40;;;2.30;;
18510;SDS011;9384;48.044;11.616;2022-08-01T02:38:35;2.53;;;2.33;;
18510;SDS011;9384;48.044;11.616;2022-08-01T02:41:05;2.23;;;2.23;;
18510;SDS011;9384;48.044;11.616;2022-08-01T02:43:35;2.30;;;2.07;;
18510;SDS011;9384;48.044;11.616;2022-08-01T02:46:04;2.43;;;2.20;;
18510;SDS011;9384;48.044;11.616;2022-08-01T02:48:33;2.30;;;2.00;;
18510;SDS011;9384;48.044;11.616;2022-08-01T02:51:01;4.70;;;2.27;;
18510;SDS011;9384;48.044;11.616;2022-08-01T02:53:30;3.70;;;2.30;;
18510;SDS011;9384;48.044;11.616;2022-08-01T02:56:03;2.40;;;2.20;;
18510;SDS011;9384;48.044;11.616;2022-08-01T02:58:31;2.97;;;2.20;;
18510;SDS011;9384;48.044;11.616;2022-08-01T03:01:00;2.17;;;2.07;;
18510;SDS011;9384;48.044;11.616;2022-08-01T03:03:28;2.60;;;2.20;;
18510;SDS011;9384;48.044;11.616;2022-08-01T03:05:55;2.20;;;2.10;;
18510;SDS011;9384;48.044;11.616;2022-08-01T03:08:23;2.30;;;2.20;;
18510;SDS011;9384;48.044;11.616;2022-08-01T03:10:50;2.87;;;2.10;;
18510;SDS011;9384;48.044;11.616;2022-08-01T03:13:20;2.53;;;2.43;;
18510;SDS011;9384;48.044;11.616;2022-08-01T03:15:48;2.27;;;2.13;;
18510;SDS011;9384;48.044;11.616;2022-08-01T03:18:16;2.00;;;2.00;;
18510;SDS011;9384;48.044;11.616;2022-08-01T03:20:44;2.23;;;2.23;;
18510;SDS011;9384;48.044;11.616;2022-08-01T03:23:12;4.80;;;2.30;;
18510;SDS011;9384;48.044;11.616;2022-08-01T03:25:40;2.53;;;2.43;;
18510;SDS011;9384;48.044;11.616;2022-08-01T03:28:10;2.03;;;2.03;;
18510;SDS011;9384;48.044;11.616;2022-08-01T03:30:40;2.20;;;2.10;;
18510;SDS011;9384;48.044;11.616;2022-08-01T03:33:07;2.40;;;2.30;;
18510;SDS011;9384;48.044;11.616;2022-08-01T03:35:36;2.50;;;2.30;;
18510;SDS011;9384;48.044;11.616;2022-08-01T03:38:04;2.53;;;2.33;;
18510;SDS011;9384;48.044;11.616;2022-08-01T03:40:35;2.17;;;2.07;;
18510;SDS011;9384;48.044;11.616;2022-08-01T03:43:05;2.20;;;2.10;;
18510;SDS011;9384;48.044;11.616;2022-08-01T03:45:34;2.67;;;2.17;;
18510;SDS011;9384;48.044;11.616;2022-08-01T03:48:05;2.43;;;2.23;;
18510;SDS011;9384;48.044;11.616;2022-08-01T03:50:35;4.00;;;2.40;;
18510;SDS011;9384;48.044;11.616;2022-08-01T03:53:03;2.70;;;2.50;;
18510;SDS011;9384;48.044;11.616;2022-08-01T03:55:32;2.47;;;2.30;;
18510;SDS011;9384;48.044;11.616;2022-08-01T03:58:00;2.07;;;1.97;;
18510;SDS011;9384;48.044;11.616;2022-08-01T04:00:27;2.20;;;2.10;;
18510;SDS011;9384;48.044;11.616;2022-08-01T04:02:55;4.23;;;2.13;;
18510;SDS011;9384;48.044;11.616;2022-08-01T04:05:23;4.30;;;2.57;;
18510;SDS011;9384;48.044;11.616;2022-08-01T04:07:51;2.47;;;2.27;;
18510;SDS011;9384;48.044;11.616;2022-08-01T04:10:20;4.00;;;2.60;;
18510;SDS011;9384;48.044;11.616;2022-08-01T04:12:48;2.30;;;2.20;;
18510;SDS011;9384;48.044;11.616;2022-08-01T04:15:15;2.97;;;2.77;;
18510;SDS011;9384;48.044;11.616;2022-08-01T04:17:43;2.10;;;2.10;;
18510;SDS011;9384;48.044;11.616;2022-08-01T04:20:10;2.57;;;2.40;;
18510;SDS011;9384;48.044;11.616;2022-08-01T04:22:39;2.53;;;2.43;;
18510;SDS011;9384;48.044;11.616;2022-08-01T04:25:12;2.80;;;2.60;;
18510;SDS011;9384;48.044;11.616;2022-08-01T04:27:40;2.17;;;2.07;;
18510;SDS011;9384;48.044;11.616;2022-08-01T04:30:09;3.80;;;2.50;;
18510;SDS011;9384;48.044;11.616;2022-08-01T04:32:37;2.73;;;2.63;;
18510;SDS011;9384;48.044;11.616;2022-08-01T04:35:06;2.40;;;2.30;;
18510;SDS011;9384;48.044;11.616;2022-08-01T04:37:34;2.40;;;2.30;;
18510;SDS011;9384;48.044;11.616;2022-08-01T04:40:04;2.60;;;2.50;;
18510;SDS011;9384;48.044;11.616;2022-08-01T04:42:31;4.50;;;2.20;;
18510;SDS011;9384;48.044;11.616;2022-08-01T04:44:59;2.43;;;2.33;;
18510;SDS011;9384;48.044;11.616;2022-08-01T04:47:26;7.20;;;2.60;;
18510;SDS011;9384;48.044;11.616;2022-08-01T04:49:54;2.53;;;2.43;;
18510;SDS011;9384;48.044;11.616;2022-08-01T04:52:22;2.77;;;2.60;;
18510;SDS011;9384;48.044;11.616;2022-08-01T04:54:49;2.80;;;2.60;;
18510;SDS011;9384;48.044;11.616;2022-08-01T04:57:18;2.43;;;2.33;;
18510;SDS011;9384;48.044;11.616;2022-08-01T04:59:45;6.37;;;2.50;;
18510;SDS011;9384;48.044;11.616;2022-08-01T05:02:15;2.80;;;2.70;;
18510;SDS011;9384;48.044;11.616;2022-08-01T05:04:43;3.13;;;2.40;;
18510;SDS011;9384;48.044;11.616;2022-08-01T05:07:10;2.40;;;2.30;;
18510;SDS011;9384;48.044;11.616;2022-08-01T05:09:38;2.77;;;2.60;;
18510;SDS011;9384;48.044;11.616;2022-08-01T05:12:06;2.80;;;2.70;;
18510;SDS011;9384;48.044;11.616;2022-08-01T05:14:35;3.27;;;2.70;;
18510;SDS011;9384;48.044;11.616;2022-08-01T05:17:03;2.33;;;2.10;;
18510;SDS011;9384;48.044;11.616;2022-08-01T05:19:31;2.50;;;2.40;;
18510;SDS011;9384;48.044;11.616;2022-08-01T05:21:58;5.80;;;2.87;;
18510;SDS011;9384;48.044;11.616;2022-08-01T05:24:26;5.53;;;2.60;;
18510;SDS011;9384;48.044;11.616;2022-08-01T05:26:54;2.50;;;2.40;;
18510;SDS011;9384;48.044;11.616;2022-08-01T05:29:21;3.43;;;2.60;;
18510;SDS011;9384;48.044;11.616;2022-08-01T05:31:50;2.90;;;2.70;;
18510;SDS011;9384;48.044;11.616;2022-08-01T05:34:17;6.53;;;2.87;;
18510;SDS011;9384;48.044;11.616;2022-08-01T05:36:45;3.13;;;2.83;;
18510;SDS011;9384;48.044;11.616;2022-08-01T05:39:12;3.43;;;2.47;;
18510;SDS011;9384;48.044;11.616;2022-08-01T05:41:40;2.60;;;2.20;;
18510;SDS011;9384;48.044;11.616;2022-08-01T05:44:07;2.23;;;2.10;;
18510;SDS011;9384;48.044;11.616;2022-08-01T05:46:34;2.50;;;2.40;;
18510;SDS011;9384;48.044;11.616;2022-08-01T05:49:04;2.63;;;2.53;;
18510;SDS011;9384;48.044;11.616;2022-08-01T05:51:31;2.87;;;2.37;;
18510;SDS011;9384;48.044;11.616;2022-08-01T05:53:58;2.40;;;2.30;;
18510;SDS011;9384;48.044;11.616;2022-08-01T05:56:26;2.00;;;1.97;;
18510;SDS011;9384;48.044;11.616;2022-08-01T05:58:53;2.53;;;2.33;;
18510;SDS011;9384;48.044;11.616;2022-08-01T06:01:20;2.30;;;2.10;;
18510;SDS011;9384;48.044;11.616;2022-08-01T06:03:47;3.47;;;2.60;;
18510;SDS011;9384;48.044;11.616;2022-08-01T06:06:16;6.63;;;2.60;;
18510;SDS011;9384;48.044;11.616;2022-08-01T06:08:43;2.67;;;2.30;;
18510;SDS011;9384;48.044;11.616;2022-08-01T06:11:10;2.03;;;2.03;;
18510;SDS011;9384;48.044;11.616;2022-08-01T06:13:38;3.37;;;2.33;;
18510;SDS011;9384;48.044;11.616;2022-08-01T06:16:05;2.20;;;2.20;;
18510;SDS011;9384;48.044;11.616;2022-08-01T06:18:32;2.80;;;2.70;;
18510;SDS011;9384;48.044;11.616;2022-08-01T06:20:59;2.87;;;2.60;;
18510;SDS011;9384;48.044;11.616;2022-08-01T06:23:28;3.77;;;2.30;;
18510;SDS011;9384;48.044;11.616;2022-08-01T06:25:55;3.40;;;2.40;;
18510;SDS011;9384;48.044;11.616;2022-08-01T06:28:23;2.43;;;2.33;;
18510;SDS011;9384;48.044;11.616;2022-08-01T06:30:50;2.50;;;2.40;;
18510;SDS011;9384;48.044;11.616;2022-08-01T06:33:18;2.30;;;2.20;;
18510;SDS011;9384;48.044;11.616;2022-08-01T06:35:45;2.57;;;2.40;;
18510;SDS011;9384;48.044;11.616;2022-08-01T06:38:12;3.70;;;2.73;;
18510;SDS011;9384;48.044;11.616;2022-08-01T06:40:41;3.10;;;2.60;;
18510;SDS011;9384;48.044;11.616;2022-08-01T06:43:08;2.77;;;2.50;;
18510;SDS011;9384;48.044;11.616;2022-08-01T06:45:36;7.23;;;2.50;;
18510;SDS011;9384;48.044;11.616;2022-08-01T06:48:04;4.67;;;2.60;;
18510;SDS011;9384;48.044;11.616;2022-08-01T06:50:31;2.87;;;2.40;;
18510;SDS011;9384;48.044;11.616;2022-08-01T06:53:00;2.30;;;2.20;;
18510;SDS011;9384;48.044;11.616;2022-08-01T06:55:27;2.47;;;2.27;;
18510;SDS011;9384;48.044;11.616;2022-08-01T06:57:56;2.67;;;2.43;;
18510;SDS011;9384;48.044;11.616;2022-08-01T07:00:24;2.47;;;2.27;;
18510;SDS011;9384;48.044;11.616;2022-08-01T07:02:52;2.40;;;2.30;;
18510;SDS011;9384;48.044;11.616;2022-08-01T07:05:19;2.53;;;2.47;;
18510;SDS011;9384;48.044;11.616;2022-08-01T07:07:47;2.77;;;2.57;;
18510;SDS011;9384;48.044;11.616;2022-08-01T07:10:14;2.33;;;2.30;;
18510;SDS011;9384;48.044;11.616;2022-08-01T07:12:41;4.10;;;3.57;;
18510;SDS011;9384;48.044;11.616;2022-08-01T07:15:10;2.77;;;2.67;;
18510;SDS011;9384;48.044;11.616;2022-08-01T07:17:37;3.30;;;2.50;;
18510;SDS011;9384;48.044;11.616;2022-08-01T07:20:06;2.93;;;2.73;;
18510;SDS011;9384;48.044;11.616;2022-08-01T07:22:33;3.20;;;2.80;;
18510;SDS011;9384;48.044;11.616;2022-08-01T07:25:00;2.87;;;2.77;;
18510;SDS011;9384;48.044;11.616;2022-08-01T07:27:28;2.93;;;2.63;;
18510;SDS011;9384;48.044;11.616;2022-08-01T07:29:55;3.07;;;2.80;;
18510;SDS011;9384;48.044;11.616;2022-08-01T07:32:23;2.67;;;2.47;;
18510;SDS011;9384;48.044;11.616;2022-08-01T07:34:51;2.80;;;2.70;;
18510;SDS011;9384;48.044;11.616;2022-08-01T07:37:18;3.03;;;2.83;;
18510;SDS011;9384;48.044;11.616;2022-08-01T07:39:45;4.20;;;2.50;;
18510;SDS011;9384;48.044;11.616;2022-08-01T07:42:12;2.80;;;2.60;;
18510;SDS011;9384;48.044;11.616;2022-08-01T07:44:39;2.60;;;2.50;;
18510;SDS011;9384;48.044;11.616;2022-08-01T07:47:06;4.97;;;2.63;;
18510;SDS011;9384;48.044;11.616;2022-08-01T07:49:35;3.13;;;2.83;;
18510;SDS011;9384;48.044;11.616;2022-08-01T07:52:04;3.00;;;2.80;;
18510;SDS011;9384;48.044;11.616;2022-08-01T07:54:31;3.47;;;2.47;;
18510;SDS011;9384;48.044;11.616;2022-08-01T07:56:59;2.70;;;2.50;;
18510;SDS011;9384;48.044;11.616;2022-08-01T07:59:26;2.43;;;2.37;;
18510;SDS011;9384;48.044;11.616;2022-08-01T08:01:53;3.13;;;2.83;;
18510;SDS011;9384;48.044;11.616;2022-08-01T08:04:20;2.47;;;2.33;;
18510;SDS011;9384;48.044;11.616;2022-08-01T08:06:48;4.07;;;2.77;;
18510;SDS011;9384;48.044;11.616;2022-08-01T08:09:17;2.60;;;2.50;;
18510;SDS011;9384;48.044;11.616;2022-08-01T08:11:44;2.80;;;2.70;;
18510;SDS011;9384;48.044;11.616;2022-08-01T08:14:12;2.80;;;2.60;;
18510;SDS011;9384;48.044;11.616;2022-08-01T08:16:40;2.80;;;2.70;;
18510;SDS011;9384;48.044;11.616;2022-08-01T08:19:07;3.13;;;2.83;;
18510;SDS011;9384;48.044;11.616;2022-08-01T08:21:34;2.93;;;2.80;;
18510;SDS011;9384;48.044;11.616;2022-08-01T08:24:04;2.90;;;2.70;;
18510;SDS011;9384;48.044;11.616;2022-08-01T08:26:49;3.50;;;2.80;;
18510;SDS011;9384;48.044;11.616;2022-08-01T08:29:16;2.63;;;2.53;;
18510;SDS011;9384;48.044;11.616;2022-08-01T08:31:44;4.70;;;3.10;;
18510;SDS011;9384;48.044;11.616;2022-08-01T08:34:11;2.90;;;2.80;;
18510;SDS011;9384;48.044;11.616;2022-08-01T08:36:38;3.60;;;3.37;;
18510;SDS011;9384;48.044;11.616;2022-08-01T08:39:07;5.07;;;2.80;;
18510;SDS011;9384;48.044;11.616;2022-08-01T08:41:35;3.80;;;2.60;;
18510;SDS011;9384;48.044;11.616;2022-08-01T08:44:02;3.40;;;2.90;;
18510;SDS011;9384;48.044;11.616;2022-08-01T08:46:29;3.47;;;2.77;;
18510;SDS011;9384;48.044;11.616;2022-08-01T08:48:59;2.40;;;2.20;;
18510;SDS011;9384;48.044;11.616;2022-08-01T08:51:26;2.40;;;2.30;;
18510;SDS011;9384;48.044;11.616;2022-08-01T08:53:54;3.90;;;2.47;;
18510;SDS011;9384;48.044;11.616;2022-08-01T08:56:23;3.70;;;2.60;;
18510;SDS011;9384;48.044;11.616;2022-08-01T08:58:51;4.30;;;2.80;;
18510;SDS011;9384;48.044;11.616;2022-08-01T09:01:18;3.10;;;2.90;;
18510;SDS011;9384;48.044;11.616;2022-08-01T09:03:45;2.50;;;2.40;;
18510;SDS011;9384;48.044;11.616;2022-08-01T09:06:13;3.13;;;2.40;;
18510;SDS011;9384;48.044;11.616;2022-08-01T09:08:40;2.90;;;2.70;;
18510;SDS011;9384;48.044;11.616;2022-08-01T09:11:07;2.90;;;2.80;;
18510;SDS011;9384;48.044;11.616;2022-08-01T09:13:36;3.13;;;2.90;;
18510;SDS011;9384;48.044;11.616;2022-08-01T09:16:03;2.67;;;2.47;;
18510;SDS011;9384;48.044;11.616;2022-08-01T09:18:31;2.20;;;2.10;;
18510;SDS011;9384;48.044;11.616;2022-08-01T09:21:09;1.97;;;1.87;;
18510;SDS011;9384;48.044;11.616;2022-08-01T09:23:37;2.57;;;2.37;;
18510;SDS011;9384;48.044;11.616;2022-08-01T09:26:07;3.13;;;2.43;;
18510;SDS011;9384;48.044;11.616;2022-08-01T09:28:36;2.70;;;2.50;;
18510;SDS011;9384;48.044;11.616;2022-08-01T09:31:07;2.10;;;2.00;;
18510;SDS011;9384;48.044;11.616;2022-08-01T09:33:47;1.70;;;1.70;;
18510;SDS011;9384;48.044;11.616;2022-08-01T09:36:15;2.47;;;2.27;;
18510;SDS011;9384;48.044;11.616;2022-08-01T09:38:42;3.03;;;2.30;;
18510;SDS011;9384;48.044;11.616;2022-08-01T09:41:10;2.23;;;2.13;;
18510;SDS011;9384;48.044;11.616;2022-08-01T09:43:38;2.00;;;1.90;;
18510;SDS011;9384;48.044;11.616;2022-08-01T09:46:08;1.77;;;1.70;;
18510;SDS011;9384;48.044;11.616;2022-08-01T09:48:37;2.00;;;2.00;;
18510;SDS011;9384;48.044;11.616;2022-08-01T09:51:05;1.80;;;1.67;;
18510;SDS011;9384;48.044;11.616;2022-08-01T09:53:43;2.33;;;2.13;;
18510;SDS011;9384;48.044;11.616;2022-08-01T09:56:11;1.50;;;1.50;;
18510;SDS011;9384;48.044;11.616;2022-08-01T09:58:52;3.67;;;1.97;;
18510;SDS011;9384;48.044;11.616;2022-08-01T10:01:20;1.93;;;1.93;;
18510;SDS011;9384;48.044;11.616;2022-08-01T10:03:55;1.90;;;1.70;;
18510;SDS011;9384;48.044;11.616;2022-08-01T10:06:30;1.83;;;1.80;;
18510;SDS011;9384;48.044;11.616;2022-08-01T10:08:57;1.73;;;1.63;;
18510;SDS011;9384;48.044;11.616;2022-08-01T10:11:24;1.60;;;1.57;;
18510;SDS011;9384;48.044;11.616;2022-08-01T10:13:53;1.70;;;1.70;;
18510;SDS011;9384;48.044;11.616;2022-08-01T10:16:21;1.77;;;1.77;;
18510;SDS011;9384;48.044;11.616;2022-08-01T10:18:49;3.83;;;1.60;;
18510;SDS011;9384;48.044;11.616;2022-08-01T10:21:16;1.60;;;1.60;;
18510;SDS011;9384;48.044;11.616;2022-08-01T10:23:44;1.93;;;1.80;;
18510;SDS011;9384;48.044;11.616;2022-08-01T10:26:12;1.90;;;1.80;;
18510;SDS011;9384;48.044;11.616;2022-08-01T10:28:40;1.63;;;1.63;;
18510;SDS011;9384;48.044;11.616;2022-08-01T10:31:12;2.00;;;1.90;;
18510;SDS011;9384;48.044;11.616;2022-08-01T10:33:40;1.97;;;1.80;;
18510;SDS011;9384;48.044;11.616;2022-08-01T10:36:07;1.77;;;1.77;;
18510;SDS011;9384;48.044;11.616;2022-08-01T10:38:35;2.50;;;1.93;;
18510;SDS011;9384;48.044;11.616;2022-08-01T10:41:03;2.10;;;1.90;;
18510;SDS011;9384;48.044;11.616;2022-08-01T10:43:30;2.90;;;1.30;;
18510;SDS011;9384;48.044;11.616;2022-08-01T10:45:57;2.08;;;1.65;;
18510;SDS011;9384;48.044;11.616;2022-08-01T10:48:29;1.70;;;1.60;;
18510;SDS011;9384;48.044;11.616;2022-08-01T10:50:58;4.50;;;2.10;;
18510;SDS011;9384;48.044;11.616;2022-08-01T10:53:26;2.17;;;1.90;;
18510;SDS011;9384;48.044;11.616;2022-08-01T10:55:57;2.50;;;1.80;;
18510;SDS011;9384;48.044;11.616;2022-08-01T10:58:25;1.70;;;1.70;;
18510;SDS011;9384;48.044;11.616;2022-08-01T11:03:41;1.58;;;1.50;;
18510;SDS011;9384;48.044;11.616;2022-08-01T11:06:14;1.70;;;1.60;;
18510;SDS011;9384;48.044;11.616;2022-08-01T11:08:42;2.72;;;1.63;;
18510;SDS011;9384;48.044;11.616;2022-08-01T11:11:17;1.50;;;1.50;;
18510;SDS011;9384;48.044;11.616;2022-08-01T11:14:00;2.53;;;1.67;;
18510;SDS011;9384;48.044;11.616;2022-08-01T11:16:31;1.65;;;1.65;;
18510;SDS011;9384;48.044;11.616;2022-08-01T11:19:01;1.65;;;1.55;;
18510;SDS011;9384;48.044;11.616;2022-08-01T11:24:14;1.30;;;1.30;;
18510;SDS011;9384;48.044;11.616;2022-08-01T11:26:44;1.90;;;1.80;;
18510;SDS011;9384;48.044;11.616;2022-08-01T11:29:32;1.83;;;1.50;;
18510;SDS011;9384;48.044;11.616;2022-08-01T11:32:13;1.67;;;1.58;;
18510;SDS011;9384;48.044;11.616;2022-08-01T11:34:54;1.45;;;1.35;;
18510;SDS011;9384;48.044;11.616;2022-08-01T11:37:22;1.40;;;1.40;;
18510;SDS011;9384;48.044;11.616;2022-08-01T11:42:32;1.42;;;1.35;;
18510;SDS011;9384;48.044;11.616;2022-08-01T11:45:00;1.38;;;1.33;;
18510;SDS011;9384;48.044;11.616;2022-08-01T11:47:43;1.40;;;1.40;;
18510;SDS011;9384;48.044;11.616;2022-08-01T11:50:31;1.73;;;1.63;;
18510;SDS011;9384;48.044;11.616;2022-08-01T11:52:58;1.70;;;1.70;;
18510;SDS011;9384;48.044;11.616;2022-08-01T11:55:26;1.85;;;1.42;;
18510;SDS011;9384;48.044;11.616;2022-08-01T11:57:58;1.58;;;1.58;;
18510;SDS011;9384;48.044;11.616;2022-08-01T12:00:26;2.15;;;2.00;;
18510;SDS011;9384;48.044;11.616;2022-08-01T12:02:56;1.60;;;1.60;;
18510;SDS011;9384;48.044;11.616;2022-08-01T12:05:24;1.63;;;1.45;;
18510;SDS011;9384;48.044;11.616;2022-08-01T12:07:53;1.30;;;1.30;;
18510;SDS011;9384;48.044;11.616;2022-08-01T12:10:22;1.83;;;1.73;;
18510;SDS011;9384;48.044;11.616;2022-08-01T12:12:50;1.40;;;1.38;;
18510;SDS011;9384;48.044;11.616;2022-08-01T12:15:17;3.55;;;1.63;;
18510;SDS011;9384;48.044;11.616;2022-08-01T12:17:45;3.80;;;1.45;;
18510;SDS011;9384;48.044;11.616;2022-08-01T12:20:14;3.20;;;1.20;;
18510;SDS011;9384;48.044;11.616;2022-08-01T12:22:41;2.25;;;1.30;;
18510;SDS011;9384;48.044;11.616;2022-08-01T12:25:11;3.45;;;1.58;;
18510;SDS011;9384;48.044;11.616;2022-08-01T12:27:39;1.80;;;1.70;;
18510;SDS011;9384;48.044;11.616;2022-08-01T12:30:07;2.78;;;1.42;;
18510;SDS011;9384;48.044;11.616;2022-08-01T12:32:36;2.05;;;1.77;;
18510;SDS011;9384;48.044;11.616;2022-08-01T12:35:04;1.38;;;1.38;;
18510;SDS011;9384;48.044;11.616;2022-08-01T12:37:32;1.60;;;1.50;;
18510;SDS011;9384;48.044;11.616;2022-08-01T12:39:59;2.35;;;1.60;;
18510;SDS011;9384;48.044;11.616;2022-08-01T12:42:27;1.77;;;1.67;;
18510;SDS011;9384;48.044;11.616;2022-08-01T12:44:55;2.30;;;1.50;;
18510;SDS011;9384;48.044;11.616;2022-08-01T12:47:22;1.52;;;1.52;;
18510;SDS011;9384;48.044;11.616;2022-08-01T12:49:50;1.30;;;1.30;;
18510;SDS011;9384;48.044;11.616;2022-08-01T12:52:17;1.27;;;1.27;;
18510;SDS011;9384;48.044;11.616;2022-08-01T12:54:59;1.50;;;1.50;;
18510;SDS011;9384;48.044;11.616;2022-08-01T12:57:28;1.13;;;1.13;;
18510;SDS011;9384;48.044;11.616;2022-08-01T13:00:04;1.48;;;1.38;;
18510;SDS011;9384;48.044;11.616;2022-08-01T13:02:32;1.58;;;1.25;;
18510;SDS011;9384;48.044;11.616;2022-08-01T13:04:59;2.03;;;1.23;;
18510;SDS011;9384;48.044;11.616;2022-08-01T13:07:34;1.20;;;1.20;;
18510;SDS011;9384;48.044;11.616;2022-08-01T13:10:01;1.75;;;1.30;;
18510;SDS011;9384;48.044;11.616;2022-08-01T13:12:30;1.50;;;1.40;;
18510;SDS011;9384;48.044;11.616;2022-08-01T13:14:57;1.38;;;1.13;;
18510;SDS011;9384;48.044;11.616;2022-08-01T13:17:31;1.42;;;1.33;;
18510;SDS011;9384;48.044;11.616;2022-08-01T13:20:00;1.88;;;1.30;;
18510;SDS011;9384;48.044;11.616;2022-08-01T13:22:33;2.25;;;1.30;;
18510;SDS011;9384;48.044;11.616;2022-08-01T13:25:10;1.23;;;1.23;;
18510;SDS011;9384;48.044;11.616;2022-08-01T13:27:39;1.65;;;1.30;;
18510;SDS011;9384;48.044;11.616;2022-08-01T13:30:13;1.23;;;1.23;;
18510;SDS011;9384;48.044;11.616;2022-08-01T13:32:41;2.35;;;1.30;;
18510;SDS011;9384;48.044;11.616;2022-08-01T13:35:09;1.90;;;1.15;;
18510;SDS011;9384;48.044;11.616;2022-08-01T13:37:38;1.35;;;1.20;;
18510;SDS011;9384;48.044;11.616;2022-08-01T13:40:05;2.00;;;1.40;;
18510;SDS011;9384;48.044;11.616;2022-08-01T13:42:33;2.35;;;1.30;;
18510;SDS011;9384;48.044;11.616;2022-08-01T13:45:01;1.35;;;1.33;;
18510;SDS011;9384;48.044;11.616;2022-08-01T13:47:29;1.02;;;1.02;;
18510;SDS011;9384;48.044;11.616;2022-08-01T13:49:56;3.55;;;1.52;;
18510;SDS011;9384;48.044;11.616;2022-08-01T13:52:25;3.20;;;1.20;;
18510;SDS011;9384;48.044;11.616;2022-08-01T13:54:52;1.30;;;1.30;;
18510;SDS011;9384;48.044;11.616;2022-08-01T13:57:19;1.70;;;1.70;;
18510;SDS011;9384;48.044;11.616;2022-08-01T13:59:47;2.25;;;1.10;;
18510;SDS011;9384;48.044;11.616;2022-08-01T14:02:15;1.30;;;1.20;;
18510;SDS011;9384;48.044;11.616;2022-08-01T14:04:42;1.80;;;1.50;;
18510;SDS011;9384;48.044;11.616;2022-08-01T14:07:10;2.05;;;1.20;;
18510;SDS011;9384;48.044;11.616;2022-08-01T14:09:38;1.60;;;1.50;;
18510;SDS011;9384;48.044;11.616;2022-08-01T14:12:05;1.02;;;1.02;;
18510;SDS011;9384;48.044;11.616;2022-08-01T14:14:32;1.13;;;1.13;;
18510;SDS011;9384;48.044;11.616;2022-08-01T14:16:59;3.80;;;1.30;;
18510;SDS011;9384;48.044;11.616;2022-08-01T14:19:28;1.25;;;1.25;;
18510;SDS011;9384;48.044;11.616;2022-08-01T14:21:55;1.42;;;1.10;;
18510;SDS011;9384;48.044;11.616;2022-08-01T14:24:23;1.17;;;1.15;;
18510;SDS011;9384;48.044;11.616;2022-08-01T14:26:51;5.63;;;1.63;;
18510;SDS011;9384;48.044;11.616;2022-08-01T14:29:18;1.67;;;1.00;;
18510;SDS011;9384;48.044;11.616;2022-08-01T14:31:45;2.10;;;1.00;;
18510;SDS011;9384;48.044;11.616;2022-08-01T14:34:12;1.75;;;1.40;;
18510;SDS011;9384;48.044;11.616;2022-08-01T14:36:52;1.75;;;1.33;;
18510;SDS011;9384;48.044;11.616;2022-08-01T14:39:19;1.83;;;1.30;;
18510;SDS011;9384;48.044;11.616;2022-08-01T14:41:46;1.30;;;1.20;;
18510;SDS011;9384;48.044;11.616;2022-08-01T14:44:13;1.27;;;1.23;;
18510;SDS011;9384;48.044;11.616;2022-08-01T14:46:41;1.23;;;1.10;;
18510;SDS011;9384;48.044;11.616;2022-08-01T14:49:09;0.90;;;0.90;;
18510;SDS011;9384;48.044;11.616;2022-08-01T14:51:36;1.00;;;1.00;;
18510;SDS011;9384;48.044;11.616;2022-08-01T14:54:05;1.13;;;1.13;;
18510;SDS011;9384;48.044;11.616;2022-08-01T14:56:33;1.13;;;1.13;;
18510;SDS011;9384;48.044;11.616;2022-08-01T14:59:00;1.10;;;1.10;;
18510;SDS011;9384;48.044;11.616;2022-08-01T15:01:27;1.95;;;1.35;;
18510;SDS011;9384;48.044;11.616;2022-08-01T15:03:54;1.50;;;1.40;;
18510;SDS011;9384;48.044;11.616;2022-08-01T15:06:22;1.80;;;1.20;;
18510;SDS011;9384;48.044;11.616;2022-08-01T15:08:49;1.63;;;1.58;;